Aviation Digital Data Service (ADDS)

Output produced by METARs form (0933 UTC 17 April 2014)
found at http://aviationweather.gov/adds/metars/
 
KCDW 170853Z 06003KT 10SM CLR 00/M08 A3064 RMK AO2 SLP382 T00001078 51008
KMMU 170915Z AUTO 01004KT 10SM CLR 01/M07 A3063 RMK AO2
KFWN 170853Z AUTO 03004KT 10SM M01/M07 A3062 RMK AO2 SLP374 6//// T10061072 51007 PWINO PNO $
KTEB 170851Z 04005KT 10SM CLR 03/M08 A3063 RMK AO2 SLP373 T00281078 51009
KTEB 170832Z 1709/1806 03005KT P6SM FEW250 
     FM171200 08008KT P6SM FEW040 SCT250 
     FM171900 12011KT P6SM FEW040 SCT250 
     FM180200 08006KT P6SM FEW040 BKN250
       
KEWR 170851Z 01009KT 10SM FEW250 01/M06 A3063 RMK AO2 SLP370 T00111061 51007
KEWR 170832Z 1709/1812 03010KT P6SM FEW250 
     FM171200 06010KT P6SM FEW040 SCT250 
     FM171900 09013KT P6SM FEW040 SCT250 
     FM180200 06010KT P6SM FEW040 BKN250 
     FM180900 06006KT P6SM FEW030 BKN250
       
KABE 170851Z 06006KT 10SM CLR M02/M08 A3060 RMK AO2 SLP367 T10171078 51004
KABE 170535Z 1706/1806 02004KT P6SM SCT250 
     FM171200 08007KT P6SM SCT250 
     FM171800 10010KT P6SM FEW045 
     FM180000 10007KT P6SM SCT200
       
KAVP 170854Z AUTO 06004KT 10SM CLR M02/M08 A3057 RMK AO2 SLP361 T10171078 50003 TSNO
KAVP 170813Z 1708/1806 VRB03KT P6SM SCT250 
     FM171400 13008KT P6SM SCT250
       
KSWF 170745Z 06006KT 10SM SKC M01/M07 A3064
KSWF 170832Z 1709/1812 06005KT P6SM FEW250 
     FM171200 09010KT P6SM FEW040 SCT250 
     FM171600 11013KT P6SM FEW040 SCT250 
     FM172100 14010KT P6SM FEW040 SCT250 
     FM180600 VRB05KT P6SM FEW030 BKN250 AMD NOT SKED
       
KMSV 170915Z AUTO 08005KT 10SM CLR M05/M08 A3059 RMK AO1
KPOU 170853Z 00000KT 10SM CLR M03/M06 A3066 RMK AO2 SLP381 T10281056 53012
KPOU 170520Z 1706/1806 00000KT P6SM SKC 
     FM171300 07005KT P6SM SCT250 
     FM171800 10009KT P6SM SCT250 
     FM180000 13006KT P6SM BKN250